createdAt,value
2023-01-26T00:01:17.919Z,57.89737161083418
2023-01-26T00:04:16.008Z,57.81409886586279
2023-01-26T00:07:16.048Z,58.10654694046398
2023-01-26T00:11:18.376Z,57.906127655900114
2023-01-26T00:14:16.585Z,58.346880239303864
2023-01-26T00:21:21.182Z,59.090000628693915
2023-01-26T00:24:15.967Z,58.79561733426281
2023-01-26T00:27:15.938Z,58.22231342832292
2023-01-26T00:31:18.180Z,58.67713024905814
2023-01-26T00:34:16.382Z,59.10669251324785
2023-01-26T00:37:16.420Z,58.70503825479889
2023-01-26T00:42:06.531Z,59.18754654122432
2023-01-26T00:44:15.643Z,59.43791761846627
2023-01-26T00:47:17.329Z,59.420404476710885
2023-01-26T00:51:15.952Z,59.49815744332244
2023-01-26T00:54:16.500Z,59.47448680870496
2023-01-26T00:57:16.276Z,59.401008331424435
2023-01-26T01:01:16.094Z,59.32663466771105
2023-01-26T01:04:16.679Z,59.80687077602424
2023-01-26T01:07:16.660Z,59.79081721349081
2023-01-26T01:11:16.010Z,59.67820026888179
2023-01-26T01:14:16.991Z,59.836253265217735
2023-01-26T01:17:16.404Z,60.278237949152604
2023-01-26T01:21:17.119Z,61.16612406499786
2023-01-26T01:24:16.635Z,61.287198863057526
2023-01-26T01:27:16.579Z,60.93191328263247
2023-01-26T01:31:16.755Z,60.56434143766841
2023-01-26T01:34:16.890Z,60.6619583882043
2023-01-26T01:37:17.416Z,61.390667461905096
2023-01-26T01:41:18.607Z,61.979029665837295
2023-01-26T01:44:18.936Z,62.09003679468677
2023-01-26T01:47:23.515Z,61.867701706562904
2023-01-26T01:51:20.803Z,61.74933775543935
2023-01-26T01:54:21.991Z,62.05891656985893
2023-01-26T01:57:23.648Z,62.675848532503785
2023-01-26T02:01:16.673Z,62.92443904632115
2023-01-26T02:04:19.486Z,63.15562397105783
2023-01-26T02:07:17.145Z,63.43365927886566
2023-01-26T02:11:20.640Z,62.99631147053257
2023-01-26T02:14:16.904Z,62.60918684350697
2023-01-26T02:17:16.753Z,62.96254226915539
2023-01-26T02:21:18.861Z,62.68408298684069
2023-01-26T02:24:21.906Z,62.78828289752474
2023-01-26T02:27:16.732Z,62.43484525559084
2023-01-26T02:31:17.827Z,62.108399826178584
2023-01-26T02:34:16.629Z,61.57245531639354
2023-01-26T02:37:16.548Z,61.929343638398905
2023-01-26T02:42:38.508Z,61.60443316315782
2023-01-26T02:44:16.998Z,62.05928563315243
2023-01-26T02:47:17.996Z,61.758875483624784
2023-01-26T02:51:15.725Z,61.25533786028259
2023-01-26T02:55:22.457Z,60.90846328932425
2023-01-26T02:57:16.179Z,61.45894365273938
2023-01-26T03:01:16.151Z,61.752675605707495
2023-01-26T03:04:16.649Z,62.11356492568198
2023-01-26T03:07:17.179Z,62.689287970294096
2023-01-26T03:11:15.841Z,62.34940684851748
2023-01-26T03:14:16.821Z,61.937955273731966
2023-01-26T03:17:16.210Z,61.79021185730812
2023-01-26T03:31:16.089Z,61.487485324038346
2023-01-26T03:34:16.432Z,61.64229407884567
2023-01-26T03:37:16.568Z,61.816458289527695
2023-01-26T04:01:20.743Z,62.38267471159673
2023-01-26T04:11:15.648Z,62.36789792359284
2023-01-26T04:21:34.550Z,62.77408099090108
2023-01-26T04:24:17.387Z,63.036171095263214
2023-01-26T04:27:16.594Z,63.562720129748946
2023-01-26T04:31:16.531Z,63.51327992752652
2023-01-26T04:34:16.462Z,63.685386576013144
2023-01-26T04:37:16.379Z,64.26231379864439
2023-01-26T04:41:15.891Z,64.08665496076323
2023-01-26T04:44:16.905Z,64.03863257385856
2023-01-26T04:47:16.080Z,63.75056004053842
2023-01-26T04:51:17.136Z,63.712459625899626
2023-01-26T04:54:15.843Z,63.829901387739795
2023-01-26T04:57:15.904Z,63.39295469821363
2023-01-26T05:01:16.562Z,63.367345036843005
2023-01-26T05:04:16.512Z,63.4629013313308
2023-01-26T05:07:16.369Z,63.085586007869985
2023-01-26T05:11:15.653Z,62.190552880873355
2023-01-26T05:14:16.104Z,62.05770703981143
2023-01-26T05:17:17.913Z,61.73889154292204
2023-01-26T05:21:16.443Z,62.10882816305822
2023-01-26T05:24:16.913Z,62.044946247457105
2023-01-26T05:27:24.072Z,62.19571928953831
2023-01-26T05:31:15.641Z,61.97401083269438
2023-01-26T05:34:15.922Z,62.626897372546644
2023-01-26T05:37:16.083Z,62.365804721716344
2023-01-26T05:41:16.242Z,62.406846617335404
2023-01-26T05:51:16.930Z,64.58943374622076
2023-01-26T05:54:17.387Z,65.3960475939756
2023-01-26T05:57:17.852Z,65.88535866396501
2023-01-26T06:01:15.730Z,65.9543522164883
2023-01-26T06:04:16.286Z,65.38888483629142
2023-01-26T06:07:16.521Z,64.35144378406225
2023-01-26T06:11:15.927Z,64.39399166323327
2023-01-26T06:14:16.226Z,64.85591240216436
2023-01-26T06:17:17.608Z,64.09866795090998
2023-01-26T06:21:16.151Z,64.69502107021914
2023-01-26T06:24:16.258Z,65.33600847339034
2023-01-26T06:27:17.025Z,63.85805185718648
2023-01-26T06:31:16.259Z,63.77217464764519
2023-01-26T06:34:16.810Z,63.50380683507841
2023-01-26T06:37:16.552Z,63.54166343029639
2023-01-26T06:41:16.540Z,63.362964121350075
2023-01-26T06:44:16.525Z,63.890515823095875
2023-01-26T06:47:16.338Z,62.93705731237594
2023-01-26T07:01:18.812Z,62.51172455110196
2023-01-26T07:04:16.888Z,63.25145273298784
2023-01-26T07:07:16.643Z,63.21748074751412
2023-01-26T07:11:17.037Z,63.29861750710027
2023-01-26T07:14:15.880Z,63.35675786821917
2023-01-26T07:17:15.944Z,63.49957451020471
2023-01-26T07:21:17.949Z,62.98751783339141
2023-01-26T07:24:16.185Z,62.93462711554844
2023-01-26T07:27:16.074Z,63.39406797518836
2023-01-26T07:31:16.110Z,63.57104938934915
2023-01-26T07:34:16.424Z,63.32725885280466
2023-01-26T07:37:16.281Z,63.48879998374665
2023-01-26T07:41:15.802Z,63.08966756450544
2023-01-26T07:44:16.012Z,62.40514378487238
2023-01-26T07:47:16.012Z,62.08875052573073
2023-01-26T07:51:16.439Z,61.84733651418343
2023-01-26T07:54:16.668Z,61.50038447574098
2023-01-26T07:57:16.796Z,60.82173818459489
2023-01-26T08:01:15.932Z,60.86659170304723
2023-01-26T08:04:17.818Z,60.44130713733952
2023-01-26T08:07:15.976Z,60.10381248785307
2023-01-26T08:11:17.283Z,60.047732165672755
2023-01-26T08:14:16.634Z,59.726437844034436
2023-01-26T08:17:17.920Z,59.918566134003534
2023-01-26T08:21:17.573Z,59.96708902948056
2023-01-26T08:24:16.569Z,59.390066179215935
2023-01-26T08:27:17.397Z,59.08047175167628
2023-01-26T08:31:20.315Z,59.351876030016754
2023-01-26T08:34:16.118Z,59.66598610009197
2023-01-26T08:37:16.100Z,59.65933146907638
2023-01-26T08:41:17.455Z,58.86355972180022
2023-01-26T08:44:17.092Z,58.57131154670493
2023-01-26T08:47:17.248Z,58.473141418067286
2023-01-26T08:51:16.039Z,58.140911691192734
2023-01-26T08:54:16.337Z,57.93600831724032
2023-01-26T08:57:16.543Z,57.37926143800351
2023-01-26T09:01:17.365Z,57.404473739223775
2023-01-26T09:04:16.557Z,57.29930423325507
2023-01-26T09:07:16.865Z,57.15651818863288
2023-01-26T09:11:17.308Z,57.183063603057455
2023-01-26T09:14:16.850Z,56.62495129429883
2023-01-26T09:17:17.328Z,56.430188092120204
2023-01-26T09:21:16.830Z,55.93931178001042
2023-01-26T09:24:16.538Z,56.097696001987075
2023-01-26T09:27:16.570Z,56.43345771252097
2023-01-26T09:31:16.774Z,55.99873761464294
2023-01-26T09:34:17.007Z,55.696797781820095
2023-01-26T09:37:17.160Z,54.958415645387554
2023-01-26T09:41:32.834Z,55.03167596127961
2023-01-26T09:44:20.291Z,54.208188824120946
2023-01-26T09:47:23.470Z,54.18653398413111
2023-01-26T09:51:23.741Z,54.181096531890034
2023-01-26T09:54:25.755Z,53.9280957040282
2023-01-26T09:57:19.978Z,53.98526803884195
2023-01-26T10:01:23.543Z,54.344388419152395
2023-01-26T10:04:27.968Z,54.3222596154999
2023-01-26T10:07:17.555Z,54.384495932719624
2023-01-26T10:11:21.169Z,53.92575231943041
2023-01-26T10:14:20.667Z,54.70015334449241
2023-01-26T10:17:23.969Z,54.42649493588807
2023-01-26T10:21:21.824Z,54.673794254451245
2023-01-26T10:24:20.952Z,54.787209381197464
2023-01-26T10:27:16.658Z,54.61483997966207
2023-01-26T10:31:19.468Z,54.96099379469971
2023-01-26T10:34:22.881Z,56.681976064114565
2023-01-26T10:37:21.256Z,56.51330713024123
2023-01-26T10:41:24.016Z,56.76911386416312
2023-01-26T10:44:24.084Z,55.76333884665964
2023-01-26T10:47:18.672Z,55.455005605377615
2023-01-26T10:51:24.075Z,54.83435230983174
2023-01-26T10:54:22.939Z,55.38549182121475
2023-01-26T10:57:22.084Z,54.71852508273523
2023-01-26T11:01:19.198Z,53.98410708110275
2023-01-26T11:04:16.559Z,54.01424676826795
2023-01-26T11:07:26.541Z,53.389064589073584
2023-01-26T11:11:25.410Z,52.619377063255016
2023-01-26T11:14:18.749Z,52.30758619703553
2023-01-26T11:17:24.831Z,52.27950660099053
2023-01-26T11:21:24.277Z,51.31491620078678
2023-01-26T11:24:25.609Z,50.44414003607821
2023-01-26T11:27:26.733Z,50.228257200611694
2023-01-26T11:31:28.614Z,49.894502495484396
2023-01-26T11:34:28.779Z,49.383796830945165
2023-01-26T11:37:38.423Z,48.46974197676876
2023-01-26T11:41:29.168Z,48.43977038957788
2023-01-26T11:44:28.498Z,47.700745995778
2023-01-26T11:47:28.947Z,47.36943537918795
2023-01-26T11:51:27.459Z,47.088887538097715
2023-01-26T11:54:28.428Z,46.86961220234912
2023-01-26T11:57:25.604Z,46.38909136852996
2023-01-26T12:01:22.310Z,46.05689172307121
2023-01-26T12:04:20.007Z,45.44457324213783
2023-01-26T12:07:22.250Z,44.985561410187366
2023-01-26T12:11:30.243Z,44.54374138159188
2023-01-26T12:14:22.714Z,44.89733247131359
2023-01-26T12:17:30.582Z,44.28372342793173
2023-01-26T12:21:17.694Z,44.96693083609613
2023-01-26T12:24:48.384Z,44.27363702288327
2023-01-26T12:27:24.373Z,44.15471190698305
2023-01-26T12:31:22.026Z,44.42334476666322
2023-01-26T12:34:22.902Z,44.726337932065
2023-01-26T12:37:32.765Z,44.255037564283434
2023-01-26T12:41:28.180Z,44.02831551848909
2023-01-26T12:44:31.859Z,44.03524191066171
2023-01-26T12:47:21.941Z,43.677228397704376
2023-01-26T12:51:23.827Z,43.46125899151635
2023-01-26T12:54:22.474Z,43.46213486764323
2023-01-26T12:57:22.646Z,43.93088581099804
2023-01-26T13:01:20.477Z,43.29835914539875
2023-01-26T13:04:16.997Z,43.34439650798166
2023-01-26T13:07:28.878Z,42.71745182627723
2023-01-26T13:11:42.440Z,42.84926281174851
2023-01-26T13:14:36.253Z,42.10762755883111
2023-01-26T13:18:47.665Z,42.382038094732366
2023-01-26T13:21:26.023Z,42.982129564760925
2023-01-26T13:24:55.486Z,43.7988987245911
2023-01-26T13:27:42.982Z,43.365122082360585
2023-01-26T13:31:32.510Z,43.23971861800387
2023-01-26T13:34:21.234Z,42.69152549541727
2023-01-26T13:37:28.343Z,42.61730498597557
2023-01-26T13:41:18.682Z,42.93736145808074
2023-01-26T13:44:22.102Z,43.26268888908728
2023-01-26T13:47:23.317Z,42.548568536050986
2023-01-26T13:51:19.413Z,42.73722127760775
2023-01-26T13:54:18.223Z,42.76583366202883
2023-01-26T13:57:22.053Z,42.885767884016964
2023-01-26T14:01:16.085Z,42.77165142072497
2023-01-26T14:04:20.117Z,42.82329586028029
2023-01-26T14:07:19.661Z,42.823419399857364
2023-01-26T14:11:19.962Z,42.74907667015852
2023-01-26T14:14:23.884Z,42.263355032998845
2023-01-26T14:17:33.855Z,42.15485634185201
2023-01-26T14:21:19.796Z,42.040497712533764
2023-01-26T14:24:17.906Z,41.60630833630385
2023-01-26T14:27:30.121Z,41.9032874053585
2023-01-26T14:31:19.271Z,41.183218844677675
2023-01-26T14:34:20.611Z,40.965929904564966
2023-01-26T14:37:17.296Z,40.817409677954075
2023-01-26T14:41:19.988Z,41.36558649599121
2023-01-26T14:44:17.055Z,40.99409838723613
2023-01-26T14:47:21.832Z,40.77125019174665
2023-01-26T14:51:20.520Z,40.57114820472539
2023-01-26T14:54:24.220Z,41.302037944411445
2023-01-26T14:57:20.573Z,40.85083963853805
2023-01-26T15:01:21.312Z,40.90197446800416
2023-01-26T15:04:23.996Z,40.616327665809095
2023-01-26T15:07:53.855Z,40.86152478166773
2023-01-26T15:12:21.862Z,40.34176550015936
2023-01-26T15:14:35.599Z,40.64395886937796
2023-01-26T15:17:38.607Z,40.56931257395005
2023-01-26T15:21:19.927Z,40.47775404744489
2023-01-26T15:24:17.170Z,40.25497599793423
2023-01-26T15:27:16.830Z,40.19774239610824
2023-01-26T15:31:20.234Z,40.25426482124283
2023-01-26T15:35:01.789Z,40.345002964815066
2023-01-26T15:37:28.480Z,40.39012495513643
2023-01-26T15:41:16.179Z,40.474919175799016
2023-01-26T15:44:18.716Z,40.627920958386156
2023-01-26T15:47:17.053Z,40.809377285246235
2023-01-26T15:51:16.597Z,40.97894887720339
2023-01-26T15:54:16.885Z,41.2112043794384
2023-01-26T15:57:17.526Z,40.960433585155805
2023-01-26T16:01:20.483Z,41.5839378276545
2023-01-26T16:04:16.402Z,42.132987985699764
2023-01-26T16:07:17.876Z,42.194482227059716
2023-01-26T16:11:17.733Z,42.73679260149613
2023-01-26T16:14:17.411Z,42.53692293978479
2023-01-26T16:17:17.406Z,42.72860841947169
2023-01-26T16:21:21.035Z,43.07212652328877
2023-01-26T16:24:16.944Z,43.57923901327825
2023-01-26T16:27:17.196Z,43.54960050972408
2023-01-26T16:31:18.365Z,43.55980296708719
2023-01-26T16:34:16.121Z,44.059966334168784
2023-01-26T16:37:16.262Z,43.94000920893902
2023-01-26T16:41:21.051Z,44.18674387082849
2023-01-26T16:44:17.581Z,44.51308772297708
2023-01-26T16:47:16.484Z,44.99009274934449
2023-01-26T16:51:19.831Z,45.36603675392387
2023-01-26T16:54:16.546Z,45.59523134910781
2023-01-26T16:57:17.031Z,46.067321137674156
2023-01-26T17:01:19.701Z,46.34716638607551
2023-01-26T17:04:17.004Z,46.55355489963958
2023-01-26T17:07:17.060Z,46.58598073037822
2023-01-26T17:11:19.217Z,46.971985939220986
2023-01-26T17:14:17.077Z,47.234280498121365
2023-01-26T17:17:17.056Z,47.18699829017079
2023-01-26T17:21:18.637Z,47.29846725630069
2023-01-26T17:24:16.336Z,47.73352329855407
2023-01-26T17:27:16.315Z,48.035393372296355
2023-01-26T17:31:19.464Z,48.4706991315389
2023-01-26T17:34:17.139Z,48.56389333253952
2023-01-26T17:37:17.491Z,48.926437308220194
2023-01-26T17:41:16.805Z,49.221470789180124
2023-01-26T17:44:16.641Z,48.985008284499266
2023-01-26T17:47:16.372Z,49.22424929287046
2023-01-26T17:51:19.278Z,49.36256889330217
2023-01-26T17:54:17.246Z,49.6188747894511
2023-01-26T17:57:16.710Z,49.84092322120561
2023-01-26T18:01:18.428Z,50.28774414201724
2023-01-26T18:04:17.783Z,50.63904913654648
2023-01-26T18:07:17.679Z,50.54126487153176
2023-01-26T18:11:16.623Z,50.95933718252293
2023-01-26T18:14:16.147Z,51.26964328460825
2023-01-26T18:17:16.899Z,51.16960558408719
2023-01-26T18:21:19.788Z,51.167708274898324
2023-01-26T18:24:16.876Z,51.52258536801255
2023-01-26T18:27:16.785Z,51.783257303852395
2023-01-26T18:31:20.017Z,51.68231199143675
2023-01-26T18:34:16.851Z,51.64112467775406
2023-01-26T18:37:16.833Z,51.941266474471455
2023-01-26T18:41:17.943Z,52.069393986611296
2023-01-26T18:44:19.310Z,52.084943547169495
2023-01-26T18:47:16.651Z,52.38530038655267
2023-01-26T18:51:18.434Z,52.41234240837339
2023-01-26T18:54:17.318Z,52.34928486859408
2023-01-26T18:57:17.229Z,52.42185305532805
2023-01-26T19:01:19.313Z,52.55340904429104
2023-01-26T19:04:18.420Z,52.69176574831609
2023-01-26T19:07:19.147Z,52.817855235742115
2023-01-26T19:11:16.753Z,52.95778257556112
2023-01-26T19:14:17.394Z,52.879491805716555
2023-01-26T19:17:18.343Z,53.18249679911365
2023-01-26T19:21:17.681Z,53.22604067568163
2023-01-26T19:24:16.598Z,53.28043375325151
2023-01-26T19:27:16.410Z,53.807494628350845
2023-01-26T19:31:20.390Z,53.91597623022968
2023-01-26T19:34:17.644Z,53.992864377305935
2023-01-26T19:37:16.701Z,53.822469700141355
2023-01-26T19:41:17.455Z,53.90985763051993
2023-01-26T19:44:17.157Z,53.63060211233753
2023-01-26T19:47:17.061Z,54.030856812469914
2023-01-26T19:51:17.839Z,53.93076432294846
2023-01-26T19:54:16.204Z,54.130677693690664
2023-01-26T19:57:16.446Z,54.358888928751945
2023-01-26T20:01:16.230Z,54.72452212840176
2023-01-26T20:04:16.483Z,55.47794820859697
2023-01-26T20:07:16.465Z,55.496714470186234
2023-01-26T20:11:16.324Z,55.26868350878086
2023-01-26T20:14:16.517Z,55.15525183964976
2023-01-26T20:17:17.147Z,55.22197890058554
2023-01-26T20:21:16.297Z,55.53625024437265
2023-01-26T20:24:16.784Z,55.556311721456645
2023-01-26T20:27:17.149Z,55.51234204667739
2023-01-26T20:31:19.582Z,55.70223059594502
2023-01-26T20:34:17.037Z,55.490480000219364
2023-01-26T20:37:16.623Z,55.937337898800266
2023-01-26T20:41:19.739Z,55.73083765272191
2023-01-26T20:44:17.909Z,55.56276482024644
2023-01-26T20:47:16.773Z,55.60043978798625
2023-01-26T20:51:18.440Z,56.01712661471457
2023-01-26T20:54:17.295Z,56.20220350319555
2023-01-26T20:57:16.537Z,56.44638086626757
2023-01-26T21:01:16.784Z,56.12734381914519
2023-01-26T21:04:16.658Z,56.09993002011538
2023-01-26T21:07:16.596Z,56.48273245245467
2023-01-26T21:11:16.565Z,56.39989674649063
2023-01-26T21:14:16.758Z,56.39124695847403
2023-01-26T21:17:17.840Z,56.74980456164227
2023-01-26T21:21:18.382Z,56.907806913733396
2023-01-26T21:24:17.098Z,57.121878832238366
2023-01-26T21:27:18.369Z,57.28884466378484
2023-01-26T21:31:16.652Z,57.17030132122884
2023-01-26T21:34:16.799Z,57.241156041934744
2023-01-26T21:37:16.626Z,57.2014521012667
2023-01-26T21:42:21.780Z,57.051204355629785
2023-01-26T21:44:18.875Z,57.57781244796798
2023-01-26T21:47:16.848Z,57.728991792415265
2023-01-26T22:01:16.193Z,58.08858086753338
2023-01-26T22:04:18.266Z,58.28241187495982
2023-01-26T22:07:16.583Z,58.65499202931782
2023-01-26T22:11:16.287Z,58.33334227785734
2023-01-26T22:14:18.412Z,58.08931902065223
2023-01-26T22:17:16.201Z,58.728395416943584
2023-01-26T22:21:17.634Z,58.94371103494344
2023-01-26T22:24:16.320Z,58.85596562863586
2023-01-26T22:27:16.216Z,58.98607736000849
2023-01-26T22:31:17.339Z,59.27777094482641
2023-01-26T22:34:16.283Z,59.26544345183095
2023-01-26T22:37:16.139Z,59.12073652865174
2023-01-26T22:41:18.398Z,59.439243872980136
2023-01-26T22:44:16.291Z,59.71168387129799
2023-01-26T22:47:16.102Z,59.781519483358224
2023-01-26T22:51:18.343Z,60.058029665622904
2023-01-26T22:54:17.018Z,59.76751563844111
2023-01-26T22:57:17.422Z,59.975732245851724
2023-01-26T23:01:16.561Z,60.13556383030484
2023-01-26T23:04:16.384Z,60.1334431322187
2023-01-26T23:07:16.704Z,60.27110296092544
2023-01-26T23:11:17.809Z,60.358169993906834
2023-01-26T23:14:16.075Z,60.821843347800254
2023-01-26T23:17:16.157Z,60.98747794095441
2023-01-26T23:21:16.209Z,60.62228608989638
2023-01-26T23:24:16.574Z,61.00189828493094
2023-01-26T23:27:16.514Z,61.017786330687464
2023-01-26T23:31:17.489Z,61.38658996686214
2023-01-26T23:34:16.521Z,61.66514282070483
2023-01-26T23:37:16.620Z,61.53765653297922
2023-01-26T23:41:17.563Z,61.74174577251162
2023-01-26T23:44:16.382Z,61.982637317763185
2023-01-26T23:47:16.473Z,62.35807046961207
2023-01-26T23:51:16.579Z,62.30594357364951
2023-01-26T23:54:16.883Z,62.785234505136465
2023-01-26T23:57:16.797Z,63.08848399713882
